Terminal Aerodrome Forecast
Issued by NWS

Home | Current Version | Previous Version | Text Only | Print | Product List | Glossary On
Versions: 1 2 3 4 5 6 7 8 9 10 11 12 13 14 15 16
000
FTUS44 KLZK 011100
TAFHOT
TAF
KHOT 011132Z 0112/0212 00000KT P6SM OVC050
      TEMPO 0112/0113 OVC025
     FM011500 08005KT P6SM OVC040
     FM020000 08003KT P6SM SCT250=

USA.gov is the U.S. government's official web portal to all federal, state and local government web resources and services.